createdAt,value
2022-09-28T00:00:39.852Z,95575.53
2022-09-28T00:05:34.501Z,95570.22
2022-09-28T00:10:27.862Z,95561.28
2022-09-28T00:15:21.586Z,95541.50
2022-09-28T00:20:16.784Z,95538.31
2022-09-28T00:25:11.834Z,95517.22
2022-09-28T00:30:06.174Z,95525.53
2022-09-28T00:34:59.438Z,95521.75
2022-09-28T00:39:52.646Z,95505.16
2022-09-28T00:44:51.594Z,95507.03
2022-09-28T00:49:50.605Z,95497.66
2022-09-28T00:54:48.403Z,95497.59
2022-09-28T00:59:43.345Z,95493.63
2022-09-28T01:04:39.796Z,95481.22
2022-09-28T01:09:34.129Z,95465.38
2022-09-28T01:14:27.537Z,95455.41
2022-09-28T01:19:50.221Z,95458.03
2022-09-28T01:24:47.391Z,95452.41
2022-09-28T01:29:53.464Z,95430.66
2022-09-28T01:34:58.854Z,95426.63
2022-09-28T01:39:58.058Z,95413.47
2022-09-28T01:44:57.892Z,95410.19
2022-09-28T01:49:59.388Z,95385.59
2022-09-28T01:54:59.397Z,95368.09
2022-09-28T02:15:34.819Z,95353.66
2022-09-28T02:20:30.568Z,95350.66
2022-09-28T02:25:35.809Z,95335.13
2022-09-28T02:30:32.613Z,95322.91
2022-09-28T02:35:26.035Z,95318.59
2022-09-28T02:40:23.183Z,95317.16
2022-09-28T02:45:37.461Z,95324.47
2022-09-28T02:55:51.604Z,95299.75
2022-09-28T03:00:56.005Z,95269.53
2022-09-28T03:06:01.618Z,95267.53
2022-09-28T03:11:00.589Z,95265.81
2022-09-28T03:16:09.843Z,95258.47
2022-09-28T03:21:05.691Z,95249.66
2022-09-28T03:25:58.973Z,95252.78
2022-09-28T03:30:52.247Z,95268.88
2022-09-28T03:35:50.486Z,95262.66
2022-09-28T03:40:43.883Z,95261.19
2022-09-28T03:45:37.222Z,95243.69
2022-09-28T03:50:30.496Z,95222.78
2022-09-28T03:55:25.214Z,95215.84
2022-09-28T04:00:18.911Z,95189.31
2022-09-28T04:05:12.188Z,95167.09
2022-09-28T04:10:06.150Z,95181.00
2022-09-28T04:15:00.767Z,95171.06
2022-09-28T04:19:53.980Z,95175.59
2022-09-28T04:24:47.283Z,95174.94
2022-09-28T04:29:44.146Z,95170.72
2022-09-28T04:34:43.147Z,95178.84
2022-09-28T04:39:37.350Z,95164.03
2022-09-28T04:49:38.494Z,95153.28
2022-09-28T04:54:31.857Z,95155.53
2022-09-28T04:59:25.910Z,95152.28
2022-09-28T05:04:23.573Z,95152.06
2022-09-28T05:14:31.081Z,95158.22
2022-09-28T05:19:24.611Z,95147.41
2022-09-28T05:24:17.981Z,95138.22
2022-09-28T05:29:11.578Z,95137.88
2022-09-28T05:34:06.598Z,95136.13
2022-09-28T05:39:00.089Z,95135.69
2022-09-28T05:43:55.076Z,95143.13
2022-09-28T05:48:48.630Z,95133.63
2022-09-28T05:53:43.693Z,95119.75
2022-09-28T05:58:36.989Z,95102.31
2022-09-28T06:03:30.284Z,95100.84
2022-09-28T06:08:23.855Z,95117.19
2022-09-28T06:13:18.636Z,95114.31
2022-09-28T06:18:15.186Z,95122.97
2022-09-28T06:23:08.894Z,95128.63
2022-09-28T06:28:04.948Z,95131.13
2022-09-28T06:33:02.603Z,95128.75
2022-09-28T06:37:55.896Z,95137.13
2022-09-28T06:42:57.581Z,95160.50
2022-09-28T06:47:56.829Z,95163.47
2022-09-28T06:52:54.405Z,95151.56
2022-09-28T06:57:48.373Z,95140.47
2022-09-28T07:02:41.778Z,95141.84
2022-09-28T07:07:35.425Z,95154.22
2022-09-28T07:12:30.241Z,95160.06
2022-09-28T07:17:23.819Z,95161.78
2022-09-28T07:22:19.362Z,95165.31
2022-09-28T07:27:13.345Z,95163.28
2022-09-28T07:32:08.475Z,95170.44
2022-09-28T07:37:01.804Z,95183.88
2022-09-28T07:41:59.652Z,95182.13
2022-09-28T07:48:47.213Z,95190.19
2022-09-28T08:21:26.369Z,95201.63
2022-09-28T08:26:20.234Z,95207.50
2022-09-28T08:49:47.572Z,95250.78
2022-09-28T08:54:49.031Z,95255.72
2022-09-28T08:59:53.346Z,95253.91
2022-09-28T09:04:46.948Z,95256.06
2022-09-28T09:10:00.809Z,95260.16
2022-09-28T09:15:39.026Z,95253.78
2022-09-28T09:20:46.549Z,95251.81
2022-09-28T09:25:43.896Z,95257.75
2022-09-28T09:30:51.277Z,95265.97
2022-09-28T09:36:13.318Z,95263.00
2022-09-28T09:41:22.507Z,95261.69
2022-09-28T09:46:30.623Z,95276.91
2022-09-28T09:51:36.291Z,95299.66
2022-09-28T10:01:42.830Z,95302.25
2022-09-28T10:06:38.765Z,95316.13
2022-09-28T10:11:38.367Z,95312.84
2022-09-28T10:16:36.202Z,95313.31
2022-09-28T10:21:37.549Z,95309.13
2022-09-28T10:26:38.334Z,95314.72
2022-09-28T10:31:42.192Z,95315.38
2022-09-28T10:36:55.263Z,95318.28
2022-09-28T10:41:51.665Z,95317.13
2022-09-28T10:46:45.881Z,95328.97
2022-09-28T10:51:47.378Z,95331.28
2022-09-28T10:56:42.113Z,95334.38
2022-09-28T11:01:35.712Z,95344.50
2022-09-28T11:06:32.834Z,95334.19
2022-09-28T11:16:47.818Z,95337.22
2022-09-28T11:21:46.211Z,95332.50
2022-09-28T11:26:44.006Z,95336.88
2022-09-28T11:31:39.818Z,95348.06
2022-09-28T11:37:02.266Z,95361.00
2022-09-28T11:42:16.692Z,95346.63
2022-09-28T11:47:53.006Z,95343.31
2022-09-28T11:52:57.735Z,95354.72
2022-09-28T11:58:03.208Z,95359.47
2022-09-28T12:03:08.640Z,95358.00
2022-09-28T12:08:13.913Z,95357.63
2022-09-28T12:13:14.958Z,95348.84
2022-09-28T12:18:16.846Z,95345.28
2022-09-28T12:23:21.080Z,95341.72
2022-09-28T12:28:40.365Z,95342.56
2022-09-28T12:39:27.040Z,95347.31
2022-09-28T12:44:57.229Z,95350.41
2022-09-28T12:55:57.723Z,95354.22
2022-09-28T13:01:07.761Z,95360.22
2022-09-28T13:06:43.729Z,95358.22
2022-09-28T13:17:10.999Z,95355.56
2022-09-28T13:22:08.903Z,95353.78
2022-09-28T13:27:00.870Z,95363.38
2022-09-28T13:31:59.318Z,95373.94
2022-09-28T13:37:24.063Z,95364.97
2022-09-28T13:43:00.131Z,95359.06
2022-09-28T13:48:17.049Z,95358.06
2022-09-28T13:53:27.642Z,95356.13
2022-09-28T13:58:27.736Z,95347.31
2022-09-28T14:03:42.853Z,95356.16
2022-09-28T14:08:44.857Z,95341.78
2022-09-28T14:14:06.568Z,95345.66
2022-09-28T14:19:08.355Z,95366.63
2022-09-28T14:24:30.243Z,95381.84
2022-09-28T14:29:29.876Z,95383.03
2022-09-28T14:34:34.525Z,95380.56
2022-09-28T14:39:58.779Z,95387.09
2022-09-28T14:45:41.265Z,95384.09
2022-09-28T14:50:36.321Z,95370.44
2022-09-28T14:55:40.145Z,95381.69
2022-09-28T15:00:42.470Z,95380.38
2022-09-28T15:05:48.416Z,95371.59
2022-09-28T15:10:53.207Z,95373.22
2022-09-28T15:15:57.099Z,95369.09
2022-09-28T15:20:52.710Z,95365.66
2022-09-28T15:25:54.382Z,95362.75
2022-09-28T15:30:47.631Z,95359.44
2022-09-28T15:35:41.189Z,95356.63
2022-09-28T15:40:40.210Z,95342.53
2022-09-28T15:45:43.376Z,95336.25
2022-09-28T15:50:38.242Z,95355.88
2022-09-28T15:55:37.102Z,95352.50
2022-09-28T16:00:32.129Z,95346.16
2022-09-28T16:05:49.826Z,95348.75
2022-09-28T16:11:12.271Z,95347.78
2022-09-28T16:16:19.107Z,95355.00
2022-09-28T16:21:41.733Z,95356.63
2022-09-28T16:26:39.890Z,95362.09
2022-09-28T16:31:41.452Z,95358.50
2022-09-28T16:36:45.469Z,95387.97
2022-09-28T16:41:44.157Z,95391.72
2022-09-28T16:46:39.152Z,95392.59
2022-09-28T16:52:09.436Z,95393.88
2022-09-28T16:57:18.337Z,95389.47
2022-09-28T17:07:36.556Z,95377.34
2022-09-28T17:12:31.330Z,95421.78
2022-09-28T17:17:32.109Z,95415.34
2022-09-28T17:22:35.769Z,95410.69
2022-09-28T17:27:38.955Z,95426.34
2022-09-28T17:32:36.835Z,95435.59
2022-09-28T17:37:53.060Z,95432.50
2022-09-28T17:42:57.075Z,95435.50
2022-09-28T17:47:50.573Z,95432.22
2022-09-28T17:52:43.895Z,95432.66
2022-09-28T17:57:37.109Z,95442.16
2022-09-28T18:02:32.041Z,95437.50
2022-09-28T18:07:25.982Z,95452.22
2022-09-28T18:12:20.679Z,95458.41
2022-09-28T18:17:17.067Z,95461.97
2022-09-28T18:22:11.802Z,95466.81
2022-09-28T18:27:05.250Z,95471.72
2022-09-28T18:31:58.516Z,95474.19
2022-09-28T18:36:51.860Z,95474.34
2022-09-28T18:41:46.514Z,95471.47
2022-09-28T18:46:40.992Z,95476.56
2022-09-28T18:51:34.385Z,95472.94
2022-09-28T18:56:27.914Z,95480.28
2022-09-28T19:01:31.579Z,95485.50
2022-09-28T19:06:25.196Z,95506.44
2022-09-28T19:11:18.583Z,95505.16
2022-09-28T19:16:16.230Z,95507.09
2022-09-28T19:21:14.153Z,95499.03
2022-09-28T19:26:10.972Z,95503.94
2022-09-28T19:31:09.118Z,95498.72
2022-09-28T19:36:05.627Z,95491.84
2022-09-28T19:41:03.363Z,95496.25
2022-09-28T19:45:57.597Z,95490.47
2022-09-28T19:50:58.588Z,95496.69
2022-09-28T19:55:55.668Z,95497.06
2022-09-28T20:00:53.056Z,95496.34
2022-09-28T20:05:49.349Z,95500.25
2022-09-28T20:10:51.155Z,95499.41
2022-09-28T20:15:44.532Z,95506.00
2022-09-28T20:20:39.521Z,95493.38
2022-09-28T20:30:34.084Z,95495.50
2022-09-28T21:37:11.940Z,95489.19
2022-09-28T22:23:29.789Z,95483.56
2022-09-28T22:28:23.367Z,95485.53
2022-09-28T22:33:16.681Z,95493.88
2022-09-28T22:38:14.287Z,95487.41
2022-09-28T23:09:06.391Z,95434.56
2022-09-28T23:14:00.780Z,95430.84
2022-09-28T23:18:56.085Z,95429.72
2022-09-28T23:23:54.415Z,95447.22
2022-09-28T23:28:49.723Z,95436.59
2022-09-28T23:33:43.075Z,95444.84
2022-09-28T23:38:38.619Z,95442.81
2022-09-28T23:43:32.190Z,95435.97
2022-09-28T23:48:26.980Z,95438.72
2022-09-28T23:53:20.421Z,95440.09
2022-09-28T23:58:13.746Z,95444.13
